sensor_id;sensor_type;location;lat;lon;timestamp;temperature;humidity
8539;DHT22;4307;53.868;11.680;2024-02-23T00:01:50;11.60;99.90
8539;DHT22;4307;53.868;11.680;2024-02-23T00:04:17;11.60;99.90
8539;DHT22;4307;53.868;11.680;2024-02-23T00:06:44;11.70;99.90
8539;DHT22;4307;53.868;11.680;2024-02-23T00:09:11;11.70;99.90
8539;DHT22;4307;53.868;11.680;2024-02-23T00:11:40;11.70;99.90
8539;DHT22;4307;53.868;11.680;2024-02-23T00:14:10;11.80;99.90
8539;DHT22;4307;53.868;11.680;2024-02-23T00:16:38;11.80;99.90
8539;DHT22;4307;53.868;11.680;2024-02-23T00:19:06;11.80;99.90
8539;DHT22;4307;53.868;11.680;2024-02-23T00:21:33;11.90;99.90
8539;DHT22;4307;53.868;11.680;2024-02-23T00:24:00;11.90;99.90
8539;DHT22;4307;53.868;11.680;2024-02-23T00:26:27;11.90;99.90
8539;DHT22;4307;53.868;11.680;2024-02-23T00:28:56;11.90;99.90
8539;DHT22;4307;53.868;11.680;2024-02-23T00:31:22;11.80;99.90
8539;DHT22;4307;53.868;11.680;2024-02-23T00:33:49;11.80;99.90
8539;DHT22;4307;53.868;11.680;2024-02-23T00:36:16;11.70;99.90
8539;DHT22;4307;53.868;11.680;2024-02-23T00:38:42;11.60;99.90
8539;DHT22;4307;53.868;11.680;2024-02-23T00:41:09;11.60;99.90
8539;DHT22;4307;53.868;11.680;2024-02-23T00:43:38;11.50;99.90
8539;DHT22;4307;53.868;11.680;2024-02-23T00:46:06;11.40;99.90
8539;DHT22;4307;53.868;11.680;2024-02-23T00:48:33;11.30;99.90
8539;DHT22;4307;53.868;11.680;2024-02-23T00:51:00;11.30;99.90
8539;DHT22;4307;53.868;11.680;2024-02-23T00:53:28;11.20;99.90
8539;DHT22;4307;53.868;11.680;2024-02-23T00:55:54;11.10;99.90
8539;DHT22;4307;53.868;11.680;2024-02-23T00:58:21;11.00;99.90
8539;DHT22;4307;53.868;11.680;2024-02-23T01:00:47;11.00;99.90
8539;DHT22;4307;53.868;11.680;2024-02-23T01:03:15;10.90;99.90
8539;DHT22;4307;53.868;11.680;2024-02-23T01:05:42;10.90;99.90
8539;DHT22;4307;53.868;11.680;2024-02-23T01:08:09;10.80;99.90
8539;DHT22;4307;53.868;11.680;2024-02-23T01:10:35;10.80;99.90
8539;DHT22;4307;53.868;11.680;2024-02-23T01:13:02;10.80;99.90
8539;DHT22;4307;53.868;11.680;2024-02-23T01:15:30;10.80;99.90
8539;DHT22;4307;53.868;11.680;2024-02-23T01:17:57;10.70;99.90
8539;DHT22;4307;53.868;11.680;2024-02-23T01:20:25;10.80;99.90
8539;DHT22;4307;53.868;11.680;2024-02-23T01:22:51;10.70;99.90
8539;DHT22;4307;53.868;11.680;2024-02-23T01:25:18;10.70;99.90
8539;DHT22;4307;53.868;11.680;2024-02-23T01:27:45;10.70;99.90
8539;DHT22;4307;53.868;11.680;2024-02-23T01:30:11;10.70;99.90
8539;DHT22;4307;53.868;11.680;2024-02-23T01:32:38;10.70;99.90
8539;DHT22;4307;53.868;11.680;2024-02-23T01:35:06;10.60;99.90
8539;DHT22;4307;53.868;11.680;2024-02-23T01:37:34;10.60;99.90
8539;DHT22;4307;53.868;11.680;2024-02-23T01:40:01;10.60;99.90
8539;DHT22;4307;53.868;11.680;2024-02-23T01:42:27;10.50;99.90
8539;DHT22;4307;53.868;11.680;2024-02-23T01:44:54;10.50;99.90
8539;DHT22;4307;53.868;11.680;2024-02-23T01:47:22;10.50;99.90
8539;DHT22;4307;53.868;11.680;2024-02-23T01:49:49;10.50;99.90
8539;DHT22;4307;53.868;11.680;2024-02-23T01:52:17;10.50;99.90
8539;DHT22;4307;53.868;11.680;2024-02-23T01:54:46;10.50;99.90
8539;DHT22;4307;53.868;11.680;2024-02-23T01:57:13;10.50;99.90
8539;DHT22;4307;53.868;11.680;2024-02-23T01:59:40;10.50;99.90
8539;DHT22;4307;53.868;11.680;2024-02-23T02:02:07;10.40;99.90
8539;DHT22;4307;53.868;11.680;2024-02-23T02:04:34;10.40;99.90
8539;DHT22;4307;53.868;11.680;2024-02-23T02:07:01;10.40;99.90
8539;DHT22;4307;53.868;11.680;2024-02-23T02:09:28;10.40;99.90
8539;DHT22;4307;53.868;11.680;2024-02-23T02:11:56;10.30;99.90
8539;DHT22;4307;53.868;11.680;2024-02-23T02:14:22;10.30;99.90
8539;DHT22;4307;53.868;11.680;2024-02-23T02:16:49;10.30;99.90
8539;DHT22;4307;53.868;11.680;2024-02-23T02:19:16;10.30;99.90
8539;DHT22;4307;53.868;11.680;2024-02-23T02:21:42;10.30;99.90
8539;DHT22;4307;53.868;11.680;2024-02-23T02:24:09;10.30;99.90
8539;DHT22;4307;53.868;11.680;2024-02-23T02:26:36;10.30;99.90
8539;DHT22;4307;53.868;11.680;2024-02-23T02:29:04;10.30;99.90
8539;DHT22;4307;53.868;11.680;2024-02-23T02:31:31;10.20;99.90
8539;DHT22;4307;53.868;11.680;2024-02-23T02:34:03;10.10;99.90
8539;DHT22;4307;53.868;11.680;2024-02-23T02:36:29;9.90;99.90
8539;DHT22;4307;53.868;11.680;2024-02-23T02:38:56;9.70;99.90
8539;DHT22;4307;53.868;11.680;2024-02-23T02:41:24;9.50;99.90
8539;DHT22;4307;53.868;11.680;2024-02-23T02:43:54;9.20;99.90
8539;DHT22;4307;53.868;11.680;2024-02-23T02:46:22;9.00;99.90
8539;DHT22;4307;53.868;11.680;2024-02-23T02:48:48;8.80;99.90
8539;DHT22;4307;53.868;11.680;2024-02-23T02:51:15;8.70;99.90
8539;DHT22;4307;53.868;11.680;2024-02-23T02:53:41;8.50;99.90
8539;DHT22;4307;53.868;11.680;2024-02-23T02:56:08;8.30;99.90
8539;DHT22;4307;53.868;11.680;2024-02-23T02:58:35;8.10;99.90
8539;DHT22;4307;53.868;11.680;2024-02-23T03:01:01;8.00;99.90
8539;DHT22;4307;53.868;11.680;2024-02-23T03:03:29;7.80;99.90
8539;DHT22;4307;53.868;11.680;2024-02-23T03:05:56;7.70;99.90
8539;DHT22;4307;53.868;11.680;2024-02-23T03:08:23;7.60;99.90
8539;DHT22;4307;53.868;11.680;2024-02-23T03:10:49;7.50;99.90
8539;DHT22;4307;53.868;11.680;2024-02-23T03:13:16;7.40;99.90
8539;DHT22;4307;53.868;11.680;2024-02-23T03:15:43;7.50;99.90
8539;DHT22;4307;53.868;11.680;2024-02-23T03:18:09;7.40;99.90
8539;DHT22;4307;53.868;11.680;2024-02-23T03:20:37;7.40;99.90
8539;DHT22;4307;53.868;11.680;2024-02-23T03:23:04;7.50;99.90
8539;DHT22;4307;53.868;11.680;2024-02-23T03:25:30;7.50;99.90
8539;DHT22;4307;53.868;11.680;2024-02-23T03:27:57;7.50;99.90
8539;DHT22;4307;53.868;11.680;2024-02-23T03:30:24;7.50;99.90
8539;DHT22;4307;53.868;11.680;2024-02-23T03:32:50;7.50;99.90
8539;DHT22;4307;53.868;11.680;2024-02-23T03:35:17;7.50;99.90
8539;DHT22;4307;53.868;11.680;2024-02-23T03:37:45;7.50;99.90
8539;DHT22;4307;53.868;11.680;2024-02-23T03:40:12;7.60;99.90
8539;DHT22;4307;53.868;11.680;2024-02-23T03:42:39;7.60;99.90
8539;DHT22;4307;53.868;11.680;2024-02-23T03:45:06;7.60;99.90
8539;DHT22;4307;53.868;11.680;2024-02-23T03:47:32;7.60;99.90
8539;DHT22;4307;53.868;11.680;2024-02-23T03:49:59;7.60;99.90
8539;DHT22;4307;53.868;11.680;2024-02-23T03:52:25;7.60;99.90
8539;DHT22;4307;53.868;11.680;2024-02-23T03:54:53;7.60;99.90
8539;DHT22;4307;53.868;11.680;2024-02-23T03:57:20;7.60;99.90
8539;DHT22;4307;53.868;11.680;2024-02-23T03:59:53;7.60;99.90
8539;DHT22;4307;53.868;11.680;2024-02-23T04:02:19;7.60;99.90
8539;DHT22;4307;53.868;11.680;2024-02-23T04:04:47;7.60;99.90
8539;DHT22;4307;53.868;11.680;2024-02-23T04:07:14;7.60;99.90
8539;DHT22;4307;53.868;11.680;2024-02-23T04:09:41;7.60;99.90
8539;DHT22;4307;53.868;11.680;2024-02-23T04:12:09;7.60;99.90
8539;DHT22;4307;53.868;11.680;2024-02-23T04:14:35;7.60;99.90
8539;DHT22;4307;53.868;11.680;2024-02-23T04:17:02;7.60;99.90
8539;DHT22;4307;53.868;11.680;2024-02-23T04:19:29;7.60;99.90
8539;DHT22;4307;53.868;11.680;2024-02-23T04:21:56;7.60;99.90
8539;DHT22;4307;53.868;11.680;2024-02-23T04:24:22;7.60;99.90
8539;DHT22;4307;53.868;11.680;2024-02-23T04:26:49;7.60;99.90
8539;DHT22;4307;53.868;11.680;2024-02-23T04:29:17;7.60;99.90
8539;DHT22;4307;53.868;11.680;2024-02-23T04:31:43;7.60;99.90
8539;DHT22;4307;53.868;11.680;2024-02-23T04:34:10;7.60;99.90
8539;DHT22;4307;53.868;11.680;2024-02-23T04:36:37;7.60;99.90
8539;DHT22;4307;53.868;11.680;2024-02-23T04:39:03;7.60;99.90
8539;DHT22;4307;53.868;11.680;2024-02-23T04:41:30;7.60;99.90
8539;DHT22;4307;53.868;11.680;2024-02-23T04:43:57;7.60;99.90
8539;DHT22;4307;53.868;11.680;2024-02-23T04:46:26;7.60;99.90
8539;DHT22;4307;53.868;11.680;2024-02-23T04:48:53;7.60;99.90
8539;DHT22;4307;53.868;11.680;2024-02-23T04:51:20;7.60;99.90
8539;DHT22;4307;53.868;11.680;2024-02-23T04:53:48;7.50;99.90
8539;DHT22;4307;53.868;11.680;2024-02-23T04:56:14;7.50;99.90
8539;DHT22;4307;53.868;11.680;2024-02-23T04:58:41;7.50;99.90
8539;DHT22;4307;53.868;11.680;2024-02-23T05:01:08;7.50;99.90
8539;DHT22;4307;53.868;11.680;2024-02-23T05:03:36;7.40;99.90
8539;DHT22;4307;53.868;11.680;2024-02-23T05:06:03;7.40;99.90
8539;DHT22;4307;53.868;11.680;2024-02-23T05:08:30;7.30;99.90
8539;DHT22;4307;53.868;11.680;2024-02-23T05:10:57;7.20;99.90
8539;DHT22;4307;53.868;11.680;2024-02-23T05:13:23;7.20;99.90
8539;DHT22;4307;53.868;11.680;2024-02-23T05:15:50;7.10;99.90
8539;DHT22;4307;53.868;11.680;2024-02-23T05:18:17;7.10;99.90
8539;DHT22;4307;53.868;11.680;2024-02-23T05:20:44;7.10;99.90
8539;DHT22;4307;53.868;11.680;2024-02-23T05:23:11;7.10;99.90
8539;DHT22;4307;53.868;11.680;2024-02-23T05:25:41;7.10;99.90
8539;DHT22;4307;53.868;11.680;2024-02-23T05:28:07;7.00;99.90
8539;DHT22;4307;53.868;11.680;2024-02-23T05:30:34;7.00;99.90
8539;DHT22;4307;53.868;11.680;2024-02-23T05:33:01;7.00;99.90
8539;DHT22;4307;53.868;11.680;2024-02-23T05:35:28;7.00;99.90
8539;DHT22;4307;53.868;11.680;2024-02-23T05:37:56;6.90;99.90
8539;DHT22;4307;53.868;11.680;2024-02-23T05:40:24;6.90;99.90
8539;DHT22;4307;53.868;11.680;2024-02-23T05:42:50;6.90;99.90
8539;DHT22;4307;53.868;11.680;2024-02-23T05:45:17;6.90;99.90
8539;DHT22;4307;53.868;11.680;2024-02-23T05:47:44;6.90;99.90
8539;DHT22;4307;53.868;11.680;2024-02-23T05:50:11;6.80;99.90
8539;DHT22;4307;53.868;11.680;2024-02-23T05:52:37;6.80;99.90
8539;DHT22;4307;53.868;11.680;2024-02-23T05:55:06;6.80;99.90
8539;DHT22;4307;53.868;11.680;2024-02-23T05:57:34;6.80;99.90
8539;DHT22;4307;53.868;11.680;2024-02-23T06:00:00;6.80;99.90
8539;DHT22;4307;53.868;11.680;2024-02-23T06:02:27;6.80;99.90
8539;DHT22;4307;53.868;11.680;2024-02-23T06:04:54;6.80;99.90
8539;DHT22;4307;53.868;11.680;2024-02-23T06:07:20;6.80;99.90
8539;DHT22;4307;53.868;11.680;2024-02-23T06:09:54;6.80;99.90
8539;DHT22;4307;53.868;11.680;2024-02-23T06:12:22;6.80;99.90
8539;DHT22;4307;53.868;11.680;2024-02-23T06:14:50;6.80;99.90
8539;DHT22;4307;53.868;11.680;2024-02-23T06:17:17;6.80;99.90
8539;DHT22;4307;53.868;11.680;2024-02-23T06:19:43;6.80;99.90
8539;DHT22;4307;53.868;11.680;2024-02-23T06:22:10;6.80;99.90
8539;DHT22;4307;53.868;11.680;2024-02-23T06:24:37;6.80;99.90
8539;DHT22;4307;53.868;11.680;2024-02-23T06:27:04;6.80;99.90
8539;DHT22;4307;53.868;11.680;2024-02-23T06:29:32;6.80;99.90
8539;DHT22;4307;53.868;11.680;2024-02-23T06:31:59;6.80;99.90
8539;DHT22;4307;53.868;11.680;2024-02-23T06:34:28;6.80;99.90
8539;DHT22;4307;53.868;11.680;2024-02-23T06:36:55;6.80;99.90
8539;DHT22;4307;53.868;11.680;2024-02-23T06:39:22;6.80;99.90
8539;DHT22;4307;53.868;11.680;2024-02-23T06:41:48;6.70;99.90
8539;DHT22;4307;53.868;11.680;2024-02-23T06:44:15;6.70;99.90
8539;DHT22;4307;53.868;11.680;2024-02-23T06:46:43;6.80;99.90
8539;DHT22;4307;53.868;11.680;2024-02-23T06:49:10;6.80;99.90
8539;DHT22;4307;53.868;11.680;2024-02-23T06:51:36;6.80;99.90
8539;DHT22;4307;53.868;11.680;2024-02-23T06:54:06;6.80;99.90
8539;DHT22;4307;53.868;11.680;2024-02-23T06:56:33;6.80;99.90
8539;DHT22;4307;53.868;11.680;2024-02-23T06:59:00;6.80;99.90
8539;DHT22;4307;53.868;11.680;2024-02-23T07:01:27;6.80;99.90
8539;DHT22;4307;53.868;11.680;2024-02-23T07:03:55;6.80;99.90
8539;DHT22;4307;53.868;11.680;2024-02-23T07:06:21;6.80;99.90
8539;DHT22;4307;53.868;11.680;2024-02-23T07:08:48;6.80;99.90
8539;DHT22;4307;53.868;11.680;2024-02-23T07:11:14;6.80;99.90
8539;DHT22;4307;53.868;11.680;2024-02-23T07:13:42;6.80;99.90
8539;DHT22;4307;53.868;11.680;2024-02-23T07:16:09;6.80;99.90
8539;DHT22;4307;53.868;11.680;2024-02-23T07:18:36;6.80;99.90
8539;DHT22;4307;53.868;11.680;2024-02-23T07:21:04;6.80;99.90
8539;DHT22;4307;53.868;11.680;2024-02-23T07:23:31;6.90;99.90
8539;DHT22;4307;53.868;11.680;2024-02-23T07:25:57;6.90;99.90
8539;DHT22;4307;53.868;11.680;2024-02-23T07:28:24;6.90;99.90
8539;DHT22;4307;53.868;11.680;2024-02-23T07:30:50;6.90;99.90
8539;DHT22;4307;53.868;11.680;2024-02-23T07:33:18;6.90;99.90
8539;DHT22;4307;53.868;11.680;2024-02-23T07:35:45;7.00;99.90
8539;DHT22;4307;53.868;11.680;2024-02-23T07:38:13;7.00;99.90
8539;DHT22;4307;53.868;11.680;2024-02-23T07:40:39;7.00;99.90
8539;DHT22;4307;53.868;11.680;2024-02-23T07:43:06;7.10;99.90
8539;DHT22;4307;53.868;11.680;2024-02-23T07:45:32;7.10;99.90
8539;DHT22;4307;53.868;11.680;2024-02-23T07:48:00;7.00;99.90
8539;DHT22;4307;53.868;11.680;2024-02-23T07:50:27;7.00;99.90
8539;DHT22;4307;53.868;11.680;2024-02-23T07:52:54;7.00;99.90
8539;DHT22;4307;53.868;11.680;2024-02-23T07:55:22;7.00;99.90
8539;DHT22;4307;53.868;11.680;2024-02-23T07:57:49;7.00;99.90
8539;DHT22;4307;53.868;11.680;2024-02-23T08:00:16;7.00;99.90
8539;DHT22;4307;53.868;11.680;2024-02-23T08:02:42;7.00;99.90
8539;DHT22;4307;53.868;11.680;2024-02-23T08:05:09;7.10;99.90
8539;DHT22;4307;53.868;11.680;2024-02-23T08:07:36;7.10;99.90
8539;DHT22;4307;53.868;11.680;2024-02-23T08:10:03;7.20;99.90
8539;DHT22;4307;53.868;11.680;2024-02-23T08:12:31;7.30;99.90
8539;DHT22;4307;53.868;11.680;2024-02-23T08:14:58;7.30;99.90
8539;DHT22;4307;53.868;11.680;2024-02-23T08:17:25;7.30;99.90
8539;DHT22;4307;53.868;11.680;2024-02-23T08:19:51;7.40;99.90
8539;DHT22;4307;53.868;11.680;2024-02-23T08:22:18;7.50;99.90
8539;DHT22;4307;53.868;11.680;2024-02-23T08:24:45;7.50;99.90
8539;DHT22;4307;53.868;11.680;2024-02-23T08:27:12;7.50;99.90
8539;DHT22;4307;53.868;11.680;2024-02-23T08:29:40;7.50;99.90
8539;DHT22;4307;53.868;11.680;2024-02-23T08:32:07;7.70;99.90
8539;DHT22;4307;53.868;11.680;2024-02-23T08:34:33;7.80;99.90
8539;DHT22;4307;53.868;11.680;2024-02-23T08:37:00;7.90;99.90
8539;DHT22;4307;53.868;11.680;2024-02-23T08:39:27;8.10;99.90
8539;DHT22;4307;53.868;11.680;2024-02-23T08:41:54;8.30;99.90
8539;DHT22;4307;53.868;11.680;2024-02-23T08:44:21;8.40;99.90
8539;DHT22;4307;53.868;11.680;2024-02-23T08:46:49;8.50;99.90
8539;DHT22;4307;53.868;11.680;2024-02-23T08:49:16;8.50;99.90
8539;DHT22;4307;53.868;11.680;2024-02-23T08:51:42;8.60;99.90
8539;DHT22;4307;53.868;11.680;2024-02-23T08:54:09;8.60;99.90
8539;DHT22;4307;53.868;11.680;2024-02-23T08:56:37;8.60;99.90
8539;DHT22;4307;53.868;11.680;2024-02-23T08:59:04;8.50;99.90
8539;DHT22;4307;53.868;11.680;2024-02-23T09:01:31;8.50;99.90
8539;DHT22;4307;53.868;11.680;2024-02-23T09:03:59;8.40;99.90
8539;DHT22;4307;53.868;11.680;2024-02-23T09:06:25;8.40;99.90
8539;DHT22;4307;53.868;11.680;2024-02-23T09:08:52;8.30;99.90
8539;DHT22;4307;53.868;11.680;2024-02-23T09:11:19;8.20;99.90
8539;DHT22;4307;53.868;11.680;2024-02-23T09:13:45;8.20;99.90
8539;DHT22;4307;53.868;11.680;2024-02-23T09:16:12;8.20;99.90
8539;DHT22;4307;53.868;11.680;2024-02-23T09:18:40;8.20;99.90
8539;DHT22;4307;53.868;11.680;2024-02-23T09:21:08;8.20;99.90
8539;DHT22;4307;53.868;11.680;2024-02-23T09:23:34;8.10;99.90
8539;DHT22;4307;53.868;11.680;2024-02-23T09:26:01;8.10;99.90
8539;DHT22;4307;53.868;11.680;2024-02-23T09:28:30;8.20;99.90
8539;DHT22;4307;53.868;11.680;2024-02-23T09:30:56;8.20;99.90
8539;DHT22;4307;53.868;11.680;2024-02-23T09:33:23;8.10;99.90
8539;DHT22;4307;53.868;11.680;2024-02-23T09:35:50;8.20;99.90
8539;DHT22;4307;53.868;11.680;2024-02-23T09:38:18;8.20;99.90
8539;DHT22;4307;53.868;11.680;2024-02-23T09:40:45;8.30;99.90
8539;DHT22;4307;53.868;11.680;2024-02-23T09:43:12;8.40;99.90
8539;DHT22;4307;53.868;11.680;2024-02-23T09:45:41;8.50;99.90
8539;DHT22;4307;53.868;11.680;2024-02-23T09:48:10;8.50;99.90
8539;DHT22;4307;53.868;11.680;2024-02-23T09:50:37;8.60;99.90
8539;DHT22;4307;53.868;11.680;2024-02-23T09:53:07;8.80;99.90
8539;DHT22;4307;53.868;11.680;2024-02-23T09:55:37;9.00;99.90
8539;DHT22;4307;53.868;11.680;2024-02-23T09:58:04;9.20;99.90
8539;DHT22;4307;53.868;11.680;2024-02-23T10:00:32;9.40;99.90
8539;DHT22;4307;53.868;11.680;2024-02-23T10:03:00;9.50;99.90
8539;DHT22;4307;53.868;11.680;2024-02-23T10:05:30;9.70;99.90
8539;DHT22;4307;53.868;11.680;2024-02-23T10:07:57;9.80;99.90
8539;DHT22;4307;53.868;11.680;2024-02-23T10:10:24;9.70;99.90
8539;DHT22;4307;53.868;11.680;2024-02-23T10:12:53;9.70;99.90
8539;DHT22;4307;53.868;11.680;2024-02-23T10:15:20;9.80;99.90
8539;DHT22;4307;53.868;11.680;2024-02-23T10:17:46;9.80;99.90
8539;DHT22;4307;53.868;11.680;2024-02-23T10:20:14;9.70;99.90
8539;DHT22;4307;53.868;11.680;2024-02-23T10:22:41;9.60;99.90
8539;DHT22;4307;53.868;11.680;2024-02-23T10:25:08;9.50;99.90
8539;DHT22;4307;53.868;11.680;2024-02-23T10:27:35;9.50;99.90
8539;DHT22;4307;53.868;11.680;2024-02-23T10:30:03;9.40;99.90
8539;DHT22;4307;53.868;11.680;2024-02-23T10:32:30;9.50;99.90
8539;DHT22;4307;53.868;11.680;2024-02-23T10:35:00;9.50;99.90
8539;DHT22;4307;53.868;11.680;2024-02-23T10:37:30;9.50;99.90
8539;DHT22;4307;53.868;11.680;2024-02-23T10:39:58;9.60;99.90
8539;DHT22;4307;53.868;11.680;2024-02-23T10:42:34;9.60;99.90
8539;DHT22;4307;53.868;11.680;2024-02-23T10:45:05;9.70;99.90
8539;DHT22;4307;53.868;11.680;2024-02-23T10:47:33;9.80;99.90
8539;DHT22;4307;53.868;11.680;2024-02-23T10:50:01;10.10;99.90
8539;DHT22;4307;53.868;11.680;2024-02-23T10:52:28;10.30;99.90
8539;DHT22;4307;53.868;11.680;2024-02-23T10:54:55;10.30;99.90
8539;DHT22;4307;53.868;11.680;2024-02-23T10:57:24;10.40;99.90
8539;DHT22;4307;53.868;11.680;2024-02-23T10:59:51;10.40;99.90
8539;DHT22;4307;53.868;11.680;2024-02-23T11:02:20;10.30;99.90
8539;DHT22;4307;53.868;11.680;2024-02-23T11:04:48;10.20;99.90
8539;DHT22;4307;53.868;11.680;2024-02-23T11:07:17;10.10;99.90
8539;DHT22;4307;53.868;11.680;2024-02-23T11:09:49;10.00;99.90
8539;DHT22;4307;53.868;11.680;2024-02-23T11:12:22;10.00;99.90
8539;DHT22;4307;53.868;11.680;2024-02-23T11:14:50;10.00;99.90
8539;DHT22;4307;53.868;11.680;2024-02-23T11:17:19;10.00;99.90
8539;DHT22;4307;53.868;11.680;2024-02-23T11:19:49;10.20;99.90
8539;DHT22;4307;53.868;11.680;2024-02-23T11:22:23;10.40;99.90
8539;DHT22;4307;53.868;11.680;2024-02-23T11:24:51;10.60;99.90
8539;DHT22;4307;53.868;11.680;2024-02-23T11:27:17;10.70;99.90
8539;DHT22;4307;53.868;11.680;2024-02-23T11:29:45;10.90;99.90
8539;DHT22;4307;53.868;11.680;2024-02-23T11:32:13;10.90;99.90
8539;DHT22;4307;53.868;11.680;2024-02-23T11:34:41;10.80;99.90
8539;DHT22;4307;53.868;11.680;2024-02-23T11:37:10;10.80;99.90
8539;DHT22;4307;53.868;11.680;2024-02-23T11:39:37;10.70;99.90
8539;DHT22;4307;53.868;11.680;2024-02-23T11:42:05;10.60;99.90
8539;DHT22;4307;53.868;11.680;2024-02-23T11:44:32;10.60;99.90
8539;DHT22;4307;53.868;11.680;2024-02-23T11:46:58;10.70;99.90
8539;DHT22;4307;53.868;11.680;2024-02-23T11:49:27;10.90;99.90
8539;DHT22;4307;53.868;11.680;2024-02-23T11:51:56;11.20;99.90
8539;DHT22;4307;53.868;11.680;2024-02-23T11:54:23;11.40;99.90
8539;DHT22;4307;53.868;11.680;2024-02-23T11:56:49;11.40;99.90
8539;DHT22;4307;53.868;11.680;2024-02-23T11:59:18;11.40;99.90
8539;DHT22;4307;53.868;11.680;2024-02-23T12:01:45;11.50;99.90
8539;DHT22;4307;53.868;11.680;2024-02-23T12:04:12;11.50;99.90
8539;DHT22;4307;53.868;11.680;2024-02-23T12:06:39;11.60;99.90
8539;DHT22;4307;53.868;11.680;2024-02-23T12:09:08;11.60;99.90
8539;DHT22;4307;53.868;11.680;2024-02-23T12:11:35;11.60;99.90
8539;DHT22;4307;53.868;11.680;2024-02-23T12:14:02;11.50;99.90
8539;DHT22;4307;53.868;11.680;2024-02-23T12:16:33;11.30;99.90
8539;DHT22;4307;53.868;11.680;2024-02-23T12:19:01;11.30;99.90
8539;DHT22;4307;53.868;11.680;2024-02-23T12:21:27;11.40;99.90
8539;DHT22;4307;53.868;11.680;2024-02-23T12:23:54;11.60;99.90
8539;DHT22;4307;53.868;11.680;2024-02-23T12:26:23;11.70;99.90
8539;DHT22;4307;53.868;11.680;2024-02-23T12:28:49;11.70;99.90
8539;DHT22;4307;53.868;11.680;2024-02-23T12:31:16;11.60;99.90
8539;DHT22;4307;53.868;11.680;2024-02-23T12:33:50;11.40;99.90
8539;DHT22;4307;53.868;11.680;2024-02-23T12:36:17;11.30;99.90
8539;DHT22;4307;53.868;11.680;2024-02-23T12:38:44;11.30;99.90
8539;DHT22;4307;53.868;11.680;2024-02-23T12:41:10;11.30;99.90
8539;DHT22;4307;53.868;11.680;2024-02-23T12:43:39;11.40;99.90
8539;DHT22;4307;53.868;11.680;2024-02-23T12:46:05;11.40;99.90
8539;DHT22;4307;53.868;11.680;2024-02-23T12:48:34;11.50;99.90
8539;DHT22;4307;53.868;11.680;2024-02-23T12:51:00;11.60;99.90
8539;DHT22;4307;53.868;11.680;2024-02-23T12:53:33;11.70;99.90
8539;DHT22;4307;53.868;11.680;2024-02-23T12:56:01;11.70;99.90
8539;DHT22;4307;53.868;11.680;2024-02-23T12:58:28;11.70;99.90
8539;DHT22;4307;53.868;11.680;2024-02-23T13:00:56;11.70;99.90
8539;DHT22;4307;53.868;11.680;2024-02-23T13:03:23;11.60;99.90
8539;DHT22;4307;53.868;11.680;2024-02-23T13:05:50;11.60;99.90
8539;DHT22;4307;53.868;11.680;2024-02-23T13:08:17;11.70;99.90
8539;DHT22;4307;53.868;11.680;2024-02-23T13:10:43;11.70;99.90
8539;DHT22;4307;53.868;11.680;2024-02-23T13:13:10;11.70;99.90
8539;DHT22;4307;53.868;11.680;2024-02-23T13:15:38;11.80;99.90
8539;DHT22;4307;53.868;11.680;2024-02-23T13:18:06;11.80;99.90
8539;DHT22;4307;53.868;11.680;2024-02-23T13:20:33;11.80;99.90
8539;DHT22;4307;53.868;11.680;2024-02-23T13:23:00;11.90;99.90
8539;DHT22;4307;53.868;11.680;2024-02-23T13:25:27;11.90;99.90
8539;DHT22;4307;53.868;11.680;2024-02-23T13:27:54;12.00;99.90
8539;DHT22;4307;53.868;11.680;2024-02-23T13:30:20;12.00;99.90
8539;DHT22;4307;53.868;11.680;2024-02-23T13:32:47;12.00;99.90
8539;DHT22;4307;53.868;11.680;2024-02-23T13:35:15;12.10;99.90
8539;DHT22;4307;53.868;11.680;2024-02-23T13:37:42;12.20;99.90
8539;DHT22;4307;53.868;11.680;2024-02-23T13:40:09;12.30;99.90
8539;DHT22;4307;53.868;11.680;2024-02-23T13:42:36;12.40;99.90
8539;DHT22;4307;53.868;11.680;2024-02-23T13:45:05;12.80;99.90
8539;DHT22;4307;53.868;11.680;2024-02-23T13:47:32;12.90;99.50
8539;DHT22;4307;53.868;11.680;2024-02-23T13:49:59;13.10;99.20
8539;DHT22;4307;53.868;11.680;2024-02-23T13:52:27;13.10;98.90
8539;DHT22;4307;53.868;11.680;2024-02-23T13:54:54;12.90;98.80
8539;DHT22;4307;53.868;11.680;2024-02-23T13:57:21;12.60;98.80
8539;DHT22;4307;53.868;11.680;2024-02-23T13:59:47;12.30;98.90
8539;DHT22;4307;53.868;11.680;2024-02-23T14:02:14;12.00;99.00
8539;DHT22;4307;53.868;11.680;2024-02-23T14:04:41;11.80;99.20
8539;DHT22;4307;53.868;11.680;2024-02-23T14:07:07;11.60;99.50
8539;DHT22;4307;53.868;11.680;2024-02-23T14:09:35;11.50;99.70
8539;DHT22;4307;53.868;11.680;2024-02-23T14:12:02;11.40;99.70
8539;DHT22;4307;53.868;11.680;2024-02-23T14:14:30;11.40;99.90
8539;DHT22;4307;53.868;11.680;2024-02-23T14:16:56;11.70;99.90
8539;DHT22;4307;53.868;11.680;2024-02-23T14:19:23;12.30;99.90
8539;DHT22;4307;53.868;11.680;2024-02-23T14:21:50;12.30;99.40
8539;DHT22;4307;53.868;11.680;2024-02-23T14:24:17;12.20;99.40
8539;DHT22;4307;53.868;11.680;2024-02-23T14:26:45;12.10;99.70
8539;DHT22;4307;53.868;11.680;2024-02-23T14:29:11;12.10;99.30
8539;DHT22;4307;53.868;11.680;2024-02-23T14:31:37;11.80;99.00
8539;DHT22;4307;53.868;11.680;2024-02-23T14:34:04;11.50;99.20
8539;DHT22;4307;53.868;11.680;2024-02-23T14:36:31;11.30;99.50
8539;DHT22;4307;53.868;11.680;2024-02-23T14:38:59;11.10;99.60
8539;DHT22;4307;53.868;11.680;2024-02-23T14:41:26;10.90;99.70
8539;DHT22;4307;53.868;11.680;2024-02-23T14:43:54;10.80;99.80
8539;DHT22;4307;53.868;11.680;2024-02-23T14:46:21;10.70;99.90
8539;DHT22;4307;53.868;11.680;2024-02-23T14:48:47;10.60;99.90
8539;DHT22;4307;53.868;11.680;2024-02-23T14:51:14;10.50;99.90
8539;DHT22;4307;53.868;11.680;2024-02-23T14:53:41;10.40;99.90
8539;DHT22;4307;53.868;11.680;2024-02-23T14:56:08;10.40;99.90
8539;DHT22;4307;53.868;11.680;2024-02-23T14:58:35;10.30;99.90
8539;DHT22;4307;53.868;11.680;2024-02-23T15:01:03;10.30;99.90
8539;DHT22;4307;53.868;11.680;2024-02-23T15:03:30;10.30;99.90
8539;DHT22;4307;53.868;11.680;2024-02-23T15:05:58;10.20;99.90
8539;DHT22;4307;53.868;11.680;2024-02-23T15:08:26;10.20;99.90
8539;DHT22;4307;53.868;11.680;2024-02-23T15:10:53;10.10;99.90
8539;DHT22;4307;53.868;11.680;2024-02-23T15:13:20;10.10;99.90
8539;DHT22;4307;53.868;11.680;2024-02-23T15:15:47;10.10;99.90
8539;DHT22;4307;53.868;11.680;2024-02-23T15:18:15;10.00;99.90
8539;DHT22;4307;53.868;11.680;2024-02-23T15:20:41;10.00;99.90
8539;DHT22;4307;53.868;11.680;2024-02-23T15:23:08;10.00;99.90
8539;DHT22;4307;53.868;11.680;2024-02-23T15:25:35;10.00;99.90
8539;DHT22;4307;53.868;11.680;2024-02-23T15:28:01;10.00;99.90
8539;DHT22;4307;53.868;11.680;2024-02-23T15:30:28;10.00;99.90
8539;DHT22;4307;53.868;11.680;2024-02-23T15:32:55;10.00;99.90
8539;DHT22;4307;53.868;11.680;2024-02-23T15:35:23;10.00;99.90
8539;DHT22;4307;53.868;11.680;2024-02-23T15:37:51;9.90;99.90
8539;DHT22;4307;53.868;11.680;2024-02-23T15:40:18;9.90;99.90
8539;DHT22;4307;53.868;11.680;2024-02-23T15:42:45;9.90;99.90
8539;DHT22;4307;53.868;11.680;2024-02-23T15:45:12;9.90;99.90
8539;DHT22;4307;53.868;11.680;2024-02-23T15:47:38;9.90;99.90
8539;DHT22;4307;53.868;11.680;2024-02-23T15:50:05;9.90;99.90
8539;DHT22;4307;53.868;11.680;2024-02-23T15:52:34;9.90;99.90
8539;DHT22;4307;53.868;11.680;2024-02-23T15:55:01;9.90;99.90